createdAt,value
2017-11-15T00:00:02.969Z,0.52
2017-11-15T00:02:30.461Z,0.61
2017-11-15T00:04:57.945Z,0.57
2017-11-15T00:07:25.427Z,0.57
2017-11-15T00:09:53.336Z,0.73
2017-11-15T00:12:20.799Z,0.76
2017-11-15T00:14:48.262Z,0.73
2017-11-15T00:17:15.749Z,0.78
2017-11-15T00:19:43.226Z,0.78
2017-11-15T00:22:10.687Z,0.87
2017-11-15T00:24:39.106Z,0.95
2017-11-15T00:27:06.579Z,0.95
2017-11-15T00:29:34.044Z,0.94
2017-11-15T00:32:01.543Z,0.97
2017-11-15T00:34:29.021Z,1.02
2017-11-15T00:36:56.503Z,1.05
2017-11-15T00:39:23.967Z,1.03
2017-11-15T00:41:51.450Z,1.03
2017-11-15T00:44:18.909Z,1.07
2017-11-15T00:46:46.394Z,1.10
2017-11-15T00:49:13.894Z,1.02
2017-11-15T00:51:41.362Z,1.01
2017-11-15T00:54:08.863Z,1.01
2017-11-15T00:56:36.336Z,1.03
2017-11-15T00:59:03.798Z,0.86
2017-11-15T01:01:31.285Z,0.78
2017-11-15T01:03:58.747Z,0.95
2017-11-15T01:06:26.228Z,0.83
2017-11-15T01:08:53.694Z,0.94
2017-11-15T01:11:21.159Z,0.92
2017-11-15T01:13:48.647Z,0.98
2017-11-15T01:16:16.110Z,0.92
2017-11-15T01:18:43.578Z,0.98
2017-11-15T01:21:11.070Z,1.04
2017-11-15T01:23:38.540Z,0.98
2017-11-15T01:26:06.022Z,1.02
2017-11-15T01:28:33.488Z,1.00
2017-11-15T01:31:00.952Z,0.99
2017-11-15T01:33:28.438Z,0.93
2017-11-15T01:35:55.904Z,1.03
2017-11-15T01:38:23.386Z,1.03
2017-11-15T01:40:50.846Z,1.06
2017-11-15T01:43:18.305Z,1.11
2017-11-15T01:45:45.907Z,1.13
2017-11-15T01:48:13.367Z,0.92
2017-11-15T01:50:40.859Z,0.93
2017-11-15T01:53:08.326Z,1.10
2017-11-15T01:55:35.828Z,1.06
2017-11-15T01:58:03.314Z,1.02
2017-11-15T02:00:42.499Z,1.17
2017-11-15T02:03:09.978Z,1.17
2017-11-15T02:05:37.437Z,1.16
2017-11-15T02:08:04.939Z,1.15
2017-11-15T02:10:32.403Z,1.17
2017-11-15T02:12:59.863Z,1.10
2017-11-15T02:15:27.351Z,1.06
2017-11-15T02:17:54.813Z,1.15
2017-11-15T02:20:22.355Z,1.18
2017-11-15T02:22:49.852Z,1.21
2017-11-15T02:25:17.328Z,1.25
2017-11-15T02:27:44.810Z,1.31
2017-11-15T02:30:12.291Z,1.27
2017-11-15T02:32:39.766Z,1.20
2017-11-15T02:35:07.246Z,1.34
2017-11-15T02:37:34.822Z,1.13
2017-11-15T02:40:02.309Z,1.33
2017-11-15T02:42:29.792Z,1.23
2017-11-15T02:44:57.263Z,1.05
2017-11-15T02:47:24.748Z,1.30
2017-11-15T02:49:52.207Z,1.27
2017-11-15T02:52:19.666Z,1.14
2017-11-15T02:54:47.153Z,1.19
2017-11-15T02:57:14.628Z,1.07
2017-11-15T02:59:42.100Z,1.24
2017-11-15T03:02:09.592Z,1.21
2017-11-15T03:04:37.887Z,1.12
2017-11-15T03:07:05.344Z,1.14
2017-11-15T03:09:32.961Z,1.14
2017-11-15T03:12:00.423Z,1.16
2017-11-15T03:14:27.878Z,1.18
2017-11-15T03:16:55.376Z,1.17
2017-11-15T03:19:22.841Z,1.17
2017-11-15T03:21:50.307Z,1.17
2017-11-15T03:24:17.791Z,1.10
2017-11-15T03:26:45.248Z,1.23
2017-11-15T03:29:12.736Z,1.13
2017-11-15T03:31:40.199Z,1.23
2017-11-15T03:34:07.657Z,1.12
2017-11-15T03:36:35.139Z,1.20
2017-11-15T03:39:02.603Z,1.19
2017-11-15T03:41:30.095Z,1.13
2017-11-15T03:43:57.551Z,1.24
2017-11-15T03:46:25.045Z,1.20
2017-11-15T03:48:52.517Z,1.37
2017-11-15T03:51:19.983Z,1.26
2017-11-15T03:53:47.466Z,1.24
2017-11-15T03:56:14.926Z,1.09
2017-11-15T03:58:42.406Z,1.04
2017-11-15T04:01:09.857Z,1.14
2017-11-15T04:03:37.332Z,1.28
2017-11-15T04:06:04.818Z,1.12
2017-11-15T04:08:32.277Z,1.25
2017-11-15T04:10:59.758Z,1.34
2017-11-15T04:13:27.227Z,1.29
2017-11-15T04:15:54.714Z,1.43
2017-11-15T04:18:22.194Z,1.50
2017-11-15T04:20:49.647Z,1.47
2017-11-15T04:23:17.139Z,1.30
2017-11-15T04:25:44.596Z,1.33
2017-11-15T04:28:12.064Z,1.42
2017-11-15T04:30:39.545Z,1.66
2017-11-15T04:33:07.012Z,1.39
2017-11-15T04:35:34.500Z,1.31
2017-11-15T04:38:01.960Z,1.67
2017-11-15T04:40:29.463Z,1.46
2017-11-15T04:42:56.928Z,1.41
2017-11-15T04:45:24.416Z,1.50
2017-11-15T04:47:51.898Z,1.41
2017-11-15T04:50:19.369Z,1.57
2017-11-15T04:52:46.866Z,1.65
2017-11-15T04:55:14.327Z,1.55
2017-11-15T04:57:41.795Z,1.50
2017-11-15T05:00:09.302Z,1.63
2017-11-15T05:02:36.802Z,1.42
2017-11-15T05:05:04.353Z,1.49
2017-11-15T05:07:31.811Z,1.38
2017-11-15T05:09:59.271Z,1.39
2017-11-15T05:12:26.759Z,1.34
2017-11-15T05:14:54.254Z,1.53
2017-11-15T05:17:21.749Z,1.24
2017-11-15T05:19:49.338Z,1.42
2017-11-15T05:22:16.816Z,1.31
2017-11-15T05:24:44.290Z,1.44
2017-11-15T05:27:11.755Z,1.36
2017-11-15T05:29:39.248Z,1.41
2017-11-15T05:32:06.709Z,1.33
2017-11-15T05:34:34.162Z,1.47
2017-11-15T05:37:01.650Z,1.37
2017-11-15T05:39:29.133Z,1.26
2017-11-15T05:41:56.594Z,1.39
2017-11-15T05:44:24.049Z,1.48
2017-11-15T05:46:51.527Z,1.43
2017-11-15T05:49:18.985Z,1.32
2017-11-15T05:51:46.481Z,1.32
2017-11-15T05:54:13.983Z,1.21
2017-11-15T05:56:41.447Z,1.41
2017-11-15T05:59:08.925Z,1.36
2017-11-15T06:01:36.392Z,1.32
2017-11-15T06:04:03.841Z,1.33
2017-11-15T06:06:31.325Z,1.37
2017-11-15T06:08:58.809Z,1.39
2017-11-15T06:11:26.343Z,1.38
2017-11-15T06:13:53.936Z,1.59
2017-11-15T06:16:21.294Z,1.48
2017-11-15T06:18:48.793Z,1.25
2017-11-15T06:21:16.203Z,1.36
2017-11-15T06:23:43.884Z,1.53
2017-11-15T06:26:11.300Z,1.42
2017-11-15T06:28:38.864Z,1.30
2017-11-15T06:31:06.276Z,1.29
2017-11-15T06:33:33.733Z,1.39
2017-11-15T06:36:01.270Z,1.40
2017-11-15T06:38:28.691Z,1.48
2017-11-15T06:40:56.146Z,1.36
2017-11-15T06:43:23.629Z,1.44
2017-11-15T06:45:51.086Z,1.54
2017-11-15T06:48:18.571Z,1.66
2017-11-15T06:50:46.030Z,2.19
2017-11-15T06:53:13.495Z,1.83
2017-11-15T06:55:40.974Z,3.09
2017-11-15T06:58:08.437Z,2.72
2017-11-15T07:00:36.539Z,1.93
2017-11-15T07:03:04.006Z,1.87
2017-11-15T07:05:31.502Z,2.05
2017-11-15T07:07:58.984Z,1.91
2017-11-15T07:10:26.463Z,1.86
2017-11-15T07:12:53.958Z,1.85
2017-11-15T07:15:21.426Z,1.99
2017-11-15T07:17:48.907Z,1.90
2017-11-15T07:20:16.367Z,2.07
2017-11-15T07:22:43.854Z,2.08
2017-11-15T07:25:11.319Z,1.69
2017-11-15T07:27:38.819Z,1.81
2017-11-15T07:30:06.312Z,1.76
2017-11-15T07:32:33.784Z,1.58
2017-11-15T07:35:01.271Z,1.71
2017-11-15T07:37:28.732Z,2.16
2017-11-15T07:39:56.219Z,2.03
2017-11-15T07:42:23.706Z,2.10
2017-11-15T07:44:51.174Z,2.18
2017-11-15T07:47:18.635Z,1.66
2017-11-15T07:49:46.399Z,1.95
2017-11-15T07:52:13.858Z,1.90
2017-11-15T07:54:41.330Z,1.80
2017-11-15T07:57:08.806Z,1.85
2017-11-15T07:59:36.290Z,1.81
2017-11-15T08:02:03.762Z,1.99
2017-11-15T08:04:31.218Z,2.10
2017-11-15T08:06:58.690Z,1.99
2017-11-15T08:09:26.151Z,2.01
2017-11-15T08:11:53.642Z,2.01
2017-11-15T08:14:21.106Z,2.00
2017-11-15T08:16:48.586Z,2.10
2017-11-15T08:19:16.048Z,2.02
2017-11-15T08:21:43.514Z,1.96
2017-11-15T08:24:11.010Z,2.12
2017-11-15T08:26:38.486Z,1.87
2017-11-15T08:29:05.965Z,1.92
2017-11-15T08:31:33.424Z,1.95
2017-11-15T08:34:00.910Z,2.17
2017-11-15T08:36:28.368Z,2.23
2017-11-15T08:38:55.866Z,1.92
2017-11-15T08:41:23.322Z,2.00
2017-11-15T08:43:50.778Z,1.99
2017-11-15T08:46:18.254Z,1.91
2017-11-15T08:48:45.743Z,1.90
2017-11-15T08:51:13.214Z,2.01
2017-11-15T08:53:40.699Z,1.87
2017-11-15T08:56:08.190Z,2.11
2017-11-15T08:58:35.662Z,2.00
2017-11-15T09:01:03.168Z,2.11
2017-11-15T09:03:30.634Z,2.16
2017-11-15T09:05:58.092Z,2.30
2017-11-15T09:08:25.584Z,2.17
2017-11-15T09:10:53.058Z,1.96
2017-11-15T09:13:20.526Z,2.04
2017-11-15T09:15:48.014Z,2.34
2017-11-15T09:18:15.470Z,2.14
2017-11-15T09:20:42.962Z,1.90
2017-11-15T09:23:10.423Z,2.15
2017-11-15T09:25:37.885Z,2.03
2017-11-15T09:28:05.397Z,2.09
2017-11-15T09:30:32.866Z,2.27
2017-11-15T09:33:00.320Z,2.29
2017-11-15T09:35:27.794Z,2.42
2017-11-15T09:37:55.245Z,2.54
2017-11-15T09:40:23.057Z,2.36
2017-11-15T09:42:50.526Z,2.50
2017-11-15T09:45:17.981Z,2.56
2017-11-15T09:47:45.455Z,2.45
2017-11-15T09:50:12.940Z,2.49
2017-11-15T09:52:40.414Z,2.36
2017-11-15T09:55:07.884Z,1.99
2017-11-15T09:57:35.336Z,2.46
2017-11-15T10:00:02.826Z,2.62
2017-11-15T10:02:30.280Z,2.82
2017-11-15T10:04:57.760Z,2.86
2017-11-15T10:07:25.238Z,2.76
2017-11-15T10:09:52.694Z,2.53
2017-11-15T10:12:20.181Z,2.47
2017-11-15T10:14:47.647Z,2.30
2017-11-15T10:17:15.129Z,2.64
2017-11-15T10:19:43.044Z,2.72
2017-11-15T10:22:10.495Z,2.91
2017-11-15T10:24:37.955Z,2.68
2017-11-15T10:27:05.647Z,2.62
2017-11-15T10:29:33.107Z,2.57
2017-11-15T10:32:00.566Z,2.63
2017-11-15T10:34:28.038Z,2.86
2017-11-15T10:36:55.491Z,2.54
2017-11-15T10:39:22.971Z,2.75
2017-11-15T10:41:50.442Z,3.26
2017-11-15T10:44:17.935Z,3.45
2017-11-15T10:46:45.387Z,2.94
2017-11-15T10:49:12.844Z,3.18
2017-11-15T10:51:40.319Z,3.37
2017-11-15T10:54:07.775Z,3.45
2017-11-15T10:56:35.347Z,3.58
2017-11-15T10:59:02.804Z,3.73
2017-11-15T11:01:30.290Z,2.91
2017-11-15T11:03:57.750Z,3.13
2017-11-15T11:06:25.234Z,4.02
2017-11-15T11:08:52.693Z,2.98
2017-11-15T11:11:20.158Z,3.25
2017-11-15T11:13:47.631Z,3.36
2017-11-15T11:16:15.085Z,3.25
2017-11-15T11:18:42.561Z,3.34
2017-11-15T11:21:10.035Z,3.69
2017-11-15T11:23:37.490Z,3.96
2017-11-15T11:26:04.973Z,4.02
2017-11-15T11:28:32.457Z,3.85
2017-11-15T11:30:59.911Z,3.77
2017-11-15T11:33:27.409Z,3.78
2017-11-15T11:35:54.881Z,3.90
2017-11-15T11:38:23.179Z,3.58
2017-11-15T11:40:50.659Z,3.56
2017-11-15T11:43:18.114Z,4.23
2017-11-15T11:45:45.599Z,4.07
2017-11-15T11:48:13.073Z,3.85
2017-11-15T11:50:40.672Z,3.58
2017-11-15T11:53:08.135Z,3.74
2017-11-15T11:55:35.596Z,3.97
2017-11-15T11:58:03.076Z,3.74
2017-11-15T12:00:30.539Z,3.61
2017-11-15T12:02:58.039Z,3.63
2017-11-15T12:05:25.516Z,3.57
2017-11-15T12:07:52.975Z,3.50
2017-11-15T12:10:20.455Z,3.97
2017-11-15T12:12:47.915Z,3.76
2017-11-15T12:15:15.376Z,3.91
2017-11-15T12:17:42.861Z,3.72
2017-11-15T12:20:10.322Z,4.70
2017-11-15T12:22:38.179Z,4.22
2017-11-15T12:25:05.647Z,4.30
2017-11-15T12:27:33.113Z,4.27
2017-11-15T12:30:00.609Z,3.93
2017-11-15T12:32:28.075Z,4.71
2017-11-15T12:34:55.533Z,4.28
2017-11-15T12:37:23.019Z,4.42
2017-11-15T12:39:50.495Z,4.38
2017-11-15T12:42:17.953Z,4.43
2017-11-15T12:44:45.448Z,4.25
2017-11-15T12:47:12.908Z,3.91
2017-11-15T12:49:40.364Z,3.80
2017-11-15T12:52:07.852Z,3.96
2017-11-15T12:54:35.357Z,4.53
2017-11-15T12:57:02.827Z,5.35
2017-11-15T12:59:30.307Z,4.74
2017-11-15T13:01:57.767Z,4.88
2017-11-15T13:04:25.254Z,5.74
2017-11-15T13:06:52.710Z,7.14
2017-11-15T13:09:20.188Z,6.49
2017-11-15T13:11:47.647Z,5.65
2017-11-15T13:14:15.136Z,4.99
2017-11-15T13:16:42.601Z,4.65
2017-11-15T13:19:10.068Z,5.20
2017-11-15T13:21:37.547Z,4.80
2017-11-15T13:24:05.011Z,5.24
2017-11-15T13:26:32.497Z,4.55
2017-11-15T13:28:59.987Z,5.04
2017-11-15T13:31:27.446Z,4.72
2017-11-15T13:33:54.926Z,4.53
2017-11-15T13:36:22.380Z,5.43
2017-11-15T13:38:49.871Z,4.35
2017-11-15T13:41:17.331Z,4.02
2017-11-15T13:43:44.788Z,4.48
2017-11-15T13:46:12.271Z,4.45
2017-11-15T13:48:39.738Z,3.84
2017-11-15T13:51:07.217Z,3.92
2017-11-15T13:53:34.687Z,3.95
2017-11-15T13:56:02.138Z,4.26
2017-11-15T13:58:29.619Z,3.95
2017-11-15T14:00:57.071Z,3.64
2017-11-15T14:03:24.547Z,3.98
2017-11-15T14:05:52.008Z,3.83
2017-11-15T14:08:19.493Z,3.55
2017-11-15T14:10:46.978Z,3.77
2017-11-15T14:13:14.437Z,3.57
2017-11-15T14:15:41.910Z,3.85
2017-11-15T14:18:09.363Z,4.34
2017-11-15T14:20:36.847Z,3.96
2017-11-15T14:23:04.336Z,3.84
2017-11-15T14:25:31.786Z,3.82
2017-11-15T14:27:59.267Z,3.66
2017-11-15T14:30:26.740Z,3.55
2017-11-15T14:32:54.200Z,4.02
2017-11-15T14:35:21.680Z,4.06
2017-11-15T14:37:49.170Z,3.49
2017-11-15T14:40:16.851Z,3.75
2017-11-15T14:42:44.298Z,3.55
2017-11-15T14:45:11.758Z,3.11
2017-11-15T14:47:39.243Z,3.70
2017-11-15T14:50:06.713Z,3.21
2017-11-15T14:52:34.163Z,3.18
2017-11-15T14:55:01.651Z,3.21
2017-11-15T14:57:29.128Z,2.71
2017-11-15T14:59:56.623Z,3.06
2017-11-15T15:02:24.101Z,2.95
2017-11-15T15:04:51.618Z,2.85
2017-11-15T15:07:19.100Z,2.69
2017-11-15T15:09:46.578Z,2.70
2017-11-15T15:12:14.074Z,2.54
2017-11-15T15:14:41.535Z,2.52
2017-11-15T15:17:09.029Z,2.39
2017-11-15T15:19:36.501Z,2.36
2017-11-15T15:22:03.984Z,2.25
2017-11-15T15:24:31.468Z,2.18
2017-11-15T15:26:58.927Z,2.13
2017-11-15T15:29:26.392Z,2.03
2017-11-15T15:31:53.876Z,2.07
2017-11-15T15:34:21.343Z,2.01
2017-11-15T15:36:48.831Z,2.12
2017-11-15T15:39:16.311Z,2.00
2017-11-15T15:41:43.813Z,1.83
2017-11-15T15:44:11.309Z,1.80
2017-11-15T15:46:38.773Z,1.83
2017-11-15T15:49:06.257Z,1.75
2017-11-15T15:51:33.762Z,1.63
2017-11-15T15:54:01.250Z,1.59
2017-11-15T15:56:28.747Z,1.60
2017-11-15T15:58:56.211Z,1.53
2017-11-15T16:01:23.709Z,1.51
2017-11-15T16:03:51.203Z,1.72
2017-11-15T16:06:18.670Z,1.56
2017-11-15T16:08:46.158Z,1.47
2017-11-15T16:11:13.650Z,1.47
2017-11-15T16:13:41.127Z,1.53
2017-11-15T16:16:08.587Z,1.48
2017-11-15T16:18:36.070Z,1.51
2017-11-15T16:21:03.530Z,1.48
2017-11-15T16:23:31.031Z,1.30
2017-11-15T16:25:58.501Z,1.25
2017-11-15T16:28:25.987Z,1.27
2017-11-15T16:30:53.458Z,1.21
2017-11-15T16:33:20.945Z,1.13
2017-11-15T16:35:48.402Z,1.15
2017-11-15T16:38:15.890Z,1.14
2017-11-15T16:40:43.362Z,1.13
2017-11-15T16:43:10.832Z,1.08
2017-11-15T16:45:38.318Z,0.92
2017-11-15T16:48:05.783Z,0.81
2017-11-15T16:50:33.914Z,0.96
2017-11-15T16:53:01.407Z,0.91
2017-11-15T16:55:28.875Z,1.00
2017-11-15T16:57:56.527Z,0.94
2017-11-15T17:00:25.097Z,0.93
2017-11-15T17:02:52.630Z,0.83
2017-11-15T17:05:20.124Z,0.68
2017-11-15T17:07:47.582Z,0.79
2017-11-15T17:10:15.676Z,0.77
2017-11-15T17:12:43.322Z,0.79
2017-11-15T17:15:10.783Z,0.61
2017-11-15T17:17:38.288Z,0.45
2017-11-15T17:20:05.791Z,0.63
2017-11-15T17:22:33.349Z,0.63
2017-11-15T17:25:00.833Z,0.53
2017-11-15T17:27:29.388Z,0.53
2017-11-15T17:29:56.937Z,0.48
2017-11-15T17:32:24.429Z,0.60
2017-11-15T17:34:51.918Z,0.66
2017-11-15T17:37:19.382Z,0.69
2017-11-15T17:39:46.872Z,0.70
2017-11-15T17:42:14.364Z,0.67
2017-11-15T17:44:41.846Z,0.60
2017-11-15T17:47:09.318Z,0.53
2017-11-15T17:49:36.779Z,0.65
2017-11-15T17:52:04.264Z,0.60
2017-11-15T17:54:31.737Z,0.63
2017-11-15T17:56:59.226Z,0.51
2017-11-15T17:59:26.721Z,0.59
2017-11-15T18:01:54.206Z,0.53
2017-11-15T18:04:21.671Z,0.55
2017-11-15T18:06:49.173Z,0.57
2017-11-15T18:09:16.663Z,0.55
2017-11-15T18:11:44.555Z,0.68
2017-11-15T18:14:12.023Z,0.76
2017-11-15T18:16:40.574Z,0.62
2017-11-15T18:19:08.068Z,0.58
2017-11-15T18:21:35.538Z,0.61
2017-11-15T18:24:03.069Z,0.65
2017-11-15T18:26:30.539Z,0.74
2017-11-15T18:28:58.009Z,0.82
2017-11-15T18:31:25.776Z,0.83
2017-11-15T18:33:53.239Z,0.88
2017-11-15T18:36:20.709Z,0.84
2017-11-15T18:38:48.197Z,0.71
2017-11-15T18:41:15.687Z,0.79
2017-11-15T18:43:43.165Z,0.73
2017-11-15T18:46:10.654Z,0.96
2017-11-15T18:48:38.707Z,1.05
2017-11-15T18:51:06.214Z,1.00
2017-11-15T18:53:33.679Z,1.07
2017-11-15T18:56:01.138Z,1.08
2017-11-15T18:58:28.626Z,1.15
2017-11-15T19:00:56.105Z,1.27
2017-11-15T19:03:23.573Z,1.32
2017-11-15T19:05:51.050Z,1.36
2017-11-15T19:08:18.513Z,1.38
2017-11-15T19:10:45.994Z,1.41
2017-11-15T19:13:13.469Z,1.35
2017-11-15T19:15:40.935Z,1.44
2017-11-15T19:18:08.480Z,1.39
2017-11-15T19:20:35.957Z,1.51
2017-11-15T19:23:03.456Z,1.60
2017-11-15T19:25:30.924Z,1.64
2017-11-15T19:27:58.398Z,1.61
2017-11-15T19:30:25.892Z,1.58
2017-11-15T19:32:53.359Z,1.62
2017-11-15T19:35:20.847Z,1.63
2017-11-15T19:37:48.321Z,1.78
2017-11-15T19:40:15.807Z,1.56
2017-11-15T19:42:43.312Z,1.57
2017-11-15T19:45:10.790Z,1.47
2017-11-15T19:47:38.383Z,1.56
2017-11-15T19:50:05.882Z,1.69
2017-11-15T19:52:33.376Z,1.70
2017-11-15T19:55:00.847Z,1.65
2017-11-15T19:57:28.362Z,1.55
2017-11-15T19:59:55.956Z,1.51
2017-11-15T20:02:23.460Z,1.54
2017-11-15T20:04:50.962Z,1.56
2017-11-15T20:07:18.465Z,1.88
2017-11-15T20:09:45.963Z,1.94
2017-11-15T20:12:13.443Z,1.96
2017-11-15T20:14:41.231Z,1.80
2017-11-15T20:17:08.925Z,2.59
2017-11-15T20:19:36.956Z,1.99
2017-11-15T20:22:04.439Z,1.78
2017-11-15T20:24:31.908Z,2.05
2017-11-15T20:26:59.410Z,2.10
2017-11-15T20:29:26.875Z,2.18
2017-11-15T20:31:54.486Z,2.15
2017-11-15T20:34:22.032Z,2.02
2017-11-15T20:36:49.495Z,2.12
2017-11-15T20:39:16.962Z,2.15
2017-11-15T20:41:44.463Z,3.45
2017-11-15T20:44:11.951Z,2.22
2017-11-15T20:46:39.463Z,2.05
2017-11-15T20:49:06.950Z,1.92
2017-11-15T20:51:34.435Z,1.92
2017-11-15T20:54:01.926Z,1.76
2017-11-15T20:56:29.438Z,1.78
2017-11-15T20:58:56.939Z,1.91
2017-11-15T21:01:24.439Z,1.83
2017-11-15T21:03:51.931Z,1.75
2017-11-15T21:06:19.611Z,1.51
2017-11-15T21:08:47.105Z,1.66
2017-11-15T21:11:14.944Z,1.82
2017-11-15T21:13:42.418Z,1.78
2017-11-15T21:16:09.913Z,1.76
2017-11-15T21:18:37.406Z,1.57
2017-11-15T21:21:04.862Z,1.62
2017-11-15T21:23:32.364Z,1.79
2017-11-15T21:25:59.856Z,1.63
2017-11-15T21:28:27.322Z,2.45
2017-11-15T21:30:55.000Z,1.67
2017-11-15T21:33:22.515Z,1.72
2017-11-15T21:35:49.987Z,1.76
2017-11-15T21:38:17.447Z,1.68
2017-11-15T21:40:44.934Z,1.71
2017-11-15T21:43:12.402Z,1.71
2017-11-15T21:45:39.870Z,1.57
2017-11-15T21:48:07.362Z,1.78
2017-11-15T21:50:34.847Z,1.79
2017-11-15T21:53:02.339Z,1.54
2017-11-15T21:55:29.817Z,1.49
2017-11-15T21:57:57.616Z,1.60
2017-11-15T22:00:25.085Z,1.45
2017-11-15T22:02:52.554Z,1.69
2017-11-15T22:05:20.053Z,1.53
2017-11-15T22:07:47.524Z,1.50
2017-11-15T22:10:15.021Z,1.67
2017-11-15T22:12:42.481Z,1.69
2017-11-15T22:15:09.948Z,1.67
2017-11-15T22:17:37.591Z,1.74
2017-11-15T22:20:05.081Z,1.72
2017-11-15T22:22:32.555Z,1.73
2017-11-15T22:25:00.039Z,1.49
2017-11-15T22:27:27.514Z,1.60
2017-11-15T22:29:55.039Z,1.50
2017-11-15T22:32:22.530Z,1.54
2017-11-15T22:34:50.184Z,1.58
2017-11-15T22:37:17.651Z,1.44
2017-11-15T22:39:45.186Z,1.23
2017-11-15T22:42:12.657Z,1.39
2017-11-15T22:44:40.138Z,1.41
2017-11-15T22:47:07.750Z,1.37
2017-11-15T22:49:35.218Z,1.43
2017-11-15T22:52:02.682Z,1.27
2017-11-15T22:54:30.440Z,1.40
2017-11-15T22:56:57.903Z,1.23
2017-11-15T22:59:25.366Z,1.12
2017-11-15T23:01:52.858Z,1.31
2017-11-15T23:04:20.328Z,1.08
2017-11-15T23:06:47.783Z,1.08
2017-11-15T23:09:15.265Z,1.15
2017-11-15T23:11:42.733Z,1.27
2017-11-15T23:14:10.235Z,1.38
2017-11-15T23:16:37.699Z,0.97
2017-11-15T23:19:05.168Z,0.92
2017-11-15T23:21:32.833Z,1.14
2017-11-15T23:24:00.300Z,0.97
2017-11-15T23:26:27.768Z,0.90
2017-11-15T23:28:55.259Z,1.01
2017-11-15T23:31:22.733Z,1.26
2017-11-15T23:33:50.199Z,1.14
2017-11-15T23:36:17.685Z,1.06
2017-11-15T23:38:45.168Z,1.04
2017-11-15T23:41:12.634Z,1.14
2017-11-15T23:43:40.125Z,0.80
2017-11-15T23:46:07.582Z,0.61
2017-11-15T23:48:35.212Z,0.64
2017-11-15T23:51:02.671Z,0.86
2017-11-15T23:53:30.162Z,0.79
2017-11-15T23:55:57.639Z,1.15
2017-11-15T23:58:25.199Z,1.17
